createdAt,value
2023-05-02T00:02:41.913Z,9.31
2023-05-02T00:06:47.164Z,9.41
2023-05-02T00:10:50.446Z,9.43
2023-05-02T00:14:53.869Z,9.35
2023-05-02T00:18:56.727Z,9.30
2023-05-02T00:23:00.998Z,9.49
2023-05-02T00:27:04.194Z,9.56
2023-05-02T00:31:07.219Z,9.62
2023-05-02T00:35:10.869Z,9.72
2023-05-02T00:39:15.171Z,9.69
2023-05-02T00:43:18.185Z,9.76
2023-05-02T00:47:21.405Z,9.70
2023-05-02T00:51:24.472Z,9.78
2023-05-02T00:55:28.753Z,9.85
2023-05-02T00:59:32.078Z,9.83
2023-05-02T01:03:41.341Z,9.89
2023-05-02T01:07:48.876Z,9.94
2023-05-02T01:11:58.041Z,9.96
2023-05-02T01:16:02.331Z,9.97
2023-05-02T01:20:07.604Z,10.01
2023-05-02T01:24:13.450Z,10.07
2023-05-02T01:28:22.776Z,10.15
2023-05-02T01:32:28.314Z,10.14
2023-05-02T01:36:32.686Z,10.22
2023-05-02T01:40:36.686Z,10.27
2023-05-02T01:44:39.780Z,10.33
2023-05-02T01:48:46.713Z,10.30
2023-05-02T01:52:52.342Z,10.28
2023-05-02T01:56:56.417Z,10.25
2023-05-02T02:01:00.999Z,10.29
2023-05-02T02:05:07.040Z,10.28
2023-05-02T02:09:10.143Z,10.34
2023-05-02T02:13:17.287Z,10.40
2023-05-02T02:17:25.619Z,10.40
2023-05-02T02:21:31.406Z,10.37
2023-05-02T02:25:35.150Z,10.42
2023-05-02T02:29:39.091Z,10.41
2023-05-02T02:33:42.349Z,10.36
2023-05-02T02:37:49.931Z,10.43
2023-05-02T02:42:02.449Z,10.41
2023-05-02T02:46:14.579Z,10.41
2023-05-02T02:50:21.654Z,10.43
2023-05-02T02:54:31.345Z,10.41
2023-05-02T02:58:40.705Z,10.34
2023-05-02T03:02:44.881Z,10.33
2023-05-02T03:06:48.252Z,10.36
2023-05-02T03:10:53.003Z,10.37
2023-05-02T03:15:00.720Z,10.42
2023-05-02T03:19:05.378Z,10.41
2023-05-02T03:23:08.968Z,10.38
2023-05-02T03:27:13.353Z,10.41
2023-05-02T03:31:18.367Z,10.38
2023-05-02T03:35:21.633Z,10.39
2023-05-02T03:39:26.946Z,10.37
2023-05-02T03:43:31.396Z,10.42
2023-05-02T03:47:34.853Z,10.37
2023-05-02T03:51:37.939Z,10.38
2023-05-02T03:55:41.194Z,10.38
2023-05-02T03:59:48.213Z,10.32
2023-05-02T04:04:01.079Z,10.33
2023-05-02T04:08:08.067Z,10.32
2023-05-02T04:12:11.434Z,10.29
2023-05-02T04:16:19.942Z,10.31
2023-05-02T04:20:23.000Z,10.33
2023-05-02T04:24:28.838Z,10.37
2023-05-02T04:28:33.131Z,10.36
2023-05-02T04:32:39.349Z,10.38
2023-05-02T04:36:42.762Z,10.40
2023-05-02T04:40:51.151Z,10.40
2023-05-02T04:44:56.571Z,10.30
2023-05-02T04:49:00.981Z,10.34
2023-05-02T04:53:03.966Z,10.29
2023-05-02T04:57:10.233Z,10.24
2023-05-02T05:01:18.240Z,10.24
2023-05-02T05:05:24.205Z,10.30
2023-05-02T05:09:27.476Z,10.17
2023-05-02T05:13:30.747Z,10.17
2023-05-02T05:17:34.067Z,10.15
2023-05-02T05:21:39.872Z,10.08
2023-05-02T05:25:45.791Z,10.03
2023-05-02T05:29:51.546Z,10.11
2023-05-02T05:33:55.151Z,10.08
2023-05-02T05:38:00.613Z,10.12
2023-05-02T05:42:06.101Z,10.25
2023-05-02T05:46:09.417Z,10.21
2023-05-02T05:50:13.920Z,10.36
2023-05-02T05:54:19.480Z,10.49
2023-05-02T05:58:22.474Z,10.75
2023-05-02T06:02:27.090Z,10.65
2023-05-02T06:06:31.865Z,10.70
2023-05-02T06:10:36.241Z,10.60
2023-05-02T06:14:39.709Z,10.33
2023-05-02T06:18:42.702Z,10.19
2023-05-02T06:22:45.516Z,10.18
2023-05-02T06:26:51.741Z,10.31
2023-05-02T06:30:58.137Z,10.34
2023-05-02T06:35:01.033Z,10.47
2023-05-02T06:39:04.086Z,10.58
2023-05-02T06:43:08.445Z,10.61
2023-05-02T06:47:11.516Z,10.61
2023-05-02T06:51:15.264Z,10.84
2023-05-02T06:55:18.349Z,10.91
2023-05-02T06:59:22.468Z,11.09
2023-05-02T07:03:25.316Z,11.25
2023-05-02T07:07:28.366Z,11.68
2023-05-02T07:11:31.220Z,11.69
2023-05-02T07:15:35.526Z,11.65
2023-05-02T07:19:38.399Z,11.91
2023-05-02T07:23:41.339Z,11.74
2023-05-02T07:27:44.286Z,11.64
2023-05-02T07:31:48.587Z,11.69
2023-05-02T07:35:51.584Z,12.11
2023-05-02T07:39:54.542Z,12.35
2023-05-02T07:43:57.724Z,12.29
2023-05-02T07:48:01.995Z,11.96
2023-05-02T07:52:05.788Z,11.76
2023-05-02T07:56:09.549Z,11.68
2023-05-02T08:00:12.784Z,11.78
2023-05-02T08:04:20.032Z,11.63
2023-05-02T08:08:23.310Z,11.68
2023-05-02T08:12:26.181Z,11.39
2023-05-02T08:16:29.098Z,11.33
2023-05-02T08:20:33.326Z,11.35
2023-05-02T08:24:36.199Z,11.66
2023-05-02T08:28:39.095Z,11.80
2023-05-02T08:32:41.962Z,11.75
2023-05-02T08:36:46.184Z,12.00
2023-05-02T08:40:49.226Z,11.74
2023-05-02T08:44:52.580Z,11.80
2023-05-02T08:48:59.041Z,11.87
2023-05-02T08:53:04.620Z,11.64
2023-05-02T08:57:07.753Z,11.16
2023-05-02T09:01:11.894Z,10.80
2023-05-02T09:05:20.434Z,10.87
2023-05-02T09:09:25.007Z,10.80
2023-05-02T09:13:35.723Z,10.62
2023-05-02T09:17:42.553Z,10.64
2023-05-02T09:21:45.455Z,10.63
2023-05-02T09:25:49.730Z,10.79
2023-05-02T09:29:52.563Z,10.86
2023-05-02T09:33:57.007Z,10.74
2023-05-02T09:37:59.935Z,10.48
2023-05-02T09:42:04.549Z,10.72
2023-05-02T09:46:08.291Z,11.00
2023-05-02T09:50:11.609Z,11.07
2023-05-02T09:54:14.510Z,10.96
2023-05-02T09:58:25.741Z,11.54
2023-05-02T10:02:31.496Z,11.69
2023-05-02T10:06:34.659Z,11.72
2023-05-02T10:10:38.285Z,12.34
2023-05-02T10:14:45.846Z,12.33
2023-05-02T10:18:49.419Z,13.25
2023-05-02T10:22:52.928Z,12.69
2023-05-02T10:26:56.717Z,13.58
2023-05-02T10:31:02.393Z,13.68
2023-05-02T10:35:06.383Z,13.13
2023-05-02T10:39:09.595Z,13.33
2023-05-02T10:43:16.258Z,13.51
2023-05-02T10:47:21.517Z,13.94
2023-05-02T10:51:28.588Z,15.29
2023-05-02T10:55:31.583Z,15.69
2023-05-02T10:59:35.989Z,13.24
2023-05-02T11:03:59.093Z,12.83
2023-05-02T11:08:23.287Z,12.74
2023-05-02T11:12:45.508Z,13.16
2023-05-02T11:17:07.386Z,13.71
2023-05-02T11:21:31.912Z,15.41
2023-05-02T11:25:36.578Z,14.84
2023-05-02T11:29:56.748Z,15.68
2023-05-02T11:34:00.089Z,14.20
2023-05-02T11:38:05.673Z,13.29
2023-05-02T11:42:08.582Z,14.13
2023-05-02T11:46:11.865Z,13.97
2023-05-02T11:50:15.105Z,13.90
2023-05-02T11:54:21.449Z,14.97
2023-05-02T11:58:25.646Z,15.24
2023-05-02T12:02:38.675Z,15.49
2023-05-02T12:06:55.226Z,14.48
2023-05-02T12:10:59.697Z,13.91
2023-05-02T12:15:05.085Z,14.98
2023-05-02T12:19:08.112Z,13.94
2023-05-02T12:23:11.443Z,14.79
2023-05-02T12:27:16.437Z,14.27
2023-05-02T12:31:19.948Z,14.81
2023-05-02T12:35:23.922Z,13.83
2023-05-02T12:39:35.708Z,15.27
2023-05-02T12:43:46.135Z,15.05
2023-05-02T12:47:49.228Z,15.42
2023-05-02T12:51:55.794Z,14.55
2023-05-02T12:56:03.210Z,14.91
2023-05-02T13:00:11.216Z,16.21
2023-05-02T13:04:14.250Z,14.77
2023-05-02T13:08:17.245Z,13.77
2023-05-02T13:12:20.115Z,15.74
2023-05-02T13:16:24.414Z,16.64
2023-05-02T13:20:27.388Z,17.80
2023-05-02T13:24:30.259Z,16.06
2023-05-02T13:28:33.613Z,17.29
2023-05-02T13:32:37.927Z,17.20
2023-05-02T13:36:46.381Z,17.29
2023-05-02T13:40:49.727Z,15.16
2023-05-02T13:44:52.765Z,15.11
2023-05-02T13:48:57.176Z,15.34
2023-05-02T13:53:00.119Z,15.77
2023-05-02T13:57:04.281Z,15.20
2023-05-02T14:01:08.066Z,15.13
2023-05-02T14:05:12.846Z,16.05
2023-05-02T14:09:17.100Z,16.85
2023-05-02T14:13:20.095Z,17.12
2023-05-02T14:17:25.219Z,15.74
2023-05-02T14:21:29.533Z,16.47
2023-05-02T14:25:32.416Z,17.67
2023-05-02T14:29:35.242Z,15.85
2023-05-02T14:33:38.118Z,15.46
2023-05-02T14:37:45.125Z,17.30
2023-05-02T14:41:48.462Z,17.24
2023-05-02T14:45:51.400Z,17.62
2023-05-02T14:49:54.325Z,17.44
2023-05-02T14:53:58.593Z,17.88
2023-05-02T14:58:01.449Z,17.37
2023-05-02T15:02:04.395Z,15.75
2023-05-02T15:06:07.475Z,18.19
2023-05-02T15:10:12.201Z,17.59
2023-05-02T15:14:15.067Z,18.85
2023-05-02T15:18:18.111Z,18.71
2023-05-02T15:22:22.334Z,17.31
2023-05-02T15:26:26.721Z,19.19
2023-05-02T15:30:29.587Z,19.24
2023-05-02T15:34:32.413Z,17.20
2023-05-02T15:38:39.341Z,18.99
2023-05-02T15:42:43.617Z,18.46
2023-05-02T15:46:47.171Z,18.31
2023-05-02T15:50:50.244Z,17.73
2023-05-02T15:54:53.164Z,18.39
2023-05-02T15:58:57.383Z,18.45
2023-05-02T16:03:01.933Z,18.28
2023-05-02T16:07:06.597Z,18.54
2023-05-02T16:11:09.490Z,17.09
2023-05-02T16:15:13.778Z,16.83
2023-05-02T16:19:17.956Z,15.54
2023-05-02T16:23:22.251Z,14.73
2023-05-02T16:27:25.160Z,14.43
2023-05-02T16:31:29.463Z,14.43
2023-05-02T16:35:32.349Z,16.15
2023-05-02T16:39:35.220Z,16.08
2023-05-02T16:43:38.665Z,16.13
2023-05-02T16:47:43.289Z,15.85
2023-05-02T16:51:48.994Z,16.80
2023-05-02T16:55:52.058Z,15.60
2023-05-02T16:59:54.966Z,15.39
2023-05-02T17:03:59.295Z,15.83
2023-05-02T17:08:02.288Z,15.56
2023-05-02T17:12:05.400Z,15.84
2023-05-02T17:16:08.740Z,15.28
2023-05-02T17:20:13.344Z,15.56
2023-05-02T17:24:16.250Z,16.19
2023-05-02T17:28:21.121Z,16.09
2023-05-02T17:32:24.175Z,16.43
2023-05-02T17:36:28.414Z,15.97
2023-05-02T17:40:31.335Z,15.88
2023-05-02T17:44:36.237Z,14.59
2023-05-02T17:48:39.103Z,14.20
2023-05-02T17:52:43.308Z,14.08
2023-05-02T17:56:46.253Z,13.34
2023-05-02T18:00:49.110Z,13.68
2023-05-02T18:04:52.062Z,13.59
2023-05-02T18:08:56.398Z,13.39
2023-05-02T18:12:59.331Z,13.56
2023-05-02T18:17:02.220Z,13.28
2023-05-02T18:21:06.187Z,13.29
2023-05-02T18:25:10.898Z,13.11
2023-05-02T18:29:13.945Z,13.05
2023-05-02T18:33:16.834Z,12.65
2023-05-02T18:37:19.773Z,12.37
2023-05-02T18:41:24.423Z,11.96
2023-05-02T18:45:28.424Z,11.57
2023-05-02T18:49:31.285Z,11.38
2023-05-02T18:53:34.225Z,11.09
2023-05-02T18:57:38.462Z,10.96
2023-05-02T19:01:41.643Z,10.81
2023-05-02T19:05:45.667Z,10.60
2023-05-02T19:09:48.518Z,10.57
2023-05-02T19:13:53.170Z,10.38
2023-05-02T19:17:56.099Z,10.21
2023-05-02T19:21:59.059Z,10.07
2023-05-02T19:26:01.998Z,9.95
2023-05-02T19:30:09.285Z,9.92
2023-05-02T19:34:12.234Z,9.72
2023-05-02T19:38:15.104Z,9.64
2023-05-02T19:42:18.962Z,9.63
2023-05-02T19:46:24.214Z,9.54
2023-05-02T19:50:27.368Z,9.54
2023-05-02T19:54:30.697Z,9.34
2023-05-02T19:58:33.676Z,9.35
2023-05-02T20:02:38.115Z,9.23
2023-05-02T20:06:41.103Z,9.11
2023-05-02T20:10:44.368Z,9.11
2023-05-02T20:14:47.203Z,9.10
2023-05-02T20:18:52.961Z,8.92
2023-05-02T20:22:56.576Z,8.76
2023-05-02T20:26:59.464Z,8.71
2023-05-02T20:31:02.823Z,8.56
2023-05-02T20:35:07.640Z,8.52
2023-05-02T20:39:12.181Z,8.37
2023-05-02T20:43:19.035Z,8.24
2023-05-02T20:47:22.295Z,8.15
2023-05-02T20:51:28.271Z,8.10
2023-05-02T20:55:31.400Z,7.98
2023-05-02T20:59:34.277Z,7.74
2023-05-02T21:03:41.249Z,7.58
2023-05-02T21:07:45.694Z,7.58
2023-05-02T21:11:48.552Z,7.80
2023-05-02T21:15:51.469Z,7.58
2023-05-02T21:19:55.992Z,7.60
2023-05-02T21:24:00.222Z,7.55
2023-05-02T21:28:03.136Z,7.53
2023-05-02T21:32:06.615Z,7.47
2023-05-02T21:36:09.868Z,7.48
2023-05-02T21:40:14.848Z,7.39
2023-05-02T21:44:17.869Z,7.32
2023-05-02T21:48:21.210Z,7.33
2023-05-02T21:52:24.082Z,7.45
2023-05-02T21:56:28.344Z,7.33
2023-05-02T22:00:32.138Z,7.20
2023-05-02T22:04:35.090Z,7.15
2023-05-02T22:08:38.260Z,7.18
2023-05-02T22:12:42.554Z,7.03
2023-05-02T22:16:45.440Z,7.03
2023-05-02T22:20:48.470Z,6.88
2023-05-02T22:24:51.726Z,6.86
2023-05-02T22:28:56.263Z,6.85
2023-05-02T22:32:59.146Z,6.59
2023-05-02T22:37:02.320Z,6.53
2023-05-02T22:41:06.617Z,6.53
2023-05-02T22:45:12.338Z,6.48
2023-05-02T22:49:15.881Z,6.31
2023-05-02T22:53:21.651Z,6.21
2023-05-02T22:57:25.229Z,6.14
2023-05-02T23:01:29.966Z,6.13
2023-05-02T23:05:32.837Z,6.11
2023-05-02T23:09:35.723Z,6.00
2023-05-02T23:13:38.612Z,5.84
2023-05-02T23:17:43.241Z,5.79
2023-05-02T23:21:46.164Z,5.59
2023-05-02T23:25:49.052Z,5.55
2023-05-02T23:29:52.131Z,5.49
2023-05-02T23:33:57.145Z,5.64
2023-05-02T23:38:00.257Z,5.56
2023-05-02T23:42:04.568Z,5.22
2023-05-02T23:46:07.901Z,5.06
2023-05-02T23:50:12.577Z,4.82
2023-05-02T23:54:16.084Z,4.78
2023-05-02T23:58:18.946Z,4.63
